createdAt,value
2022-11-13T00:00:38.204Z,8.55
2022-11-13T00:03:04.874Z,8.52
2022-11-13T00:05:31.516Z,9.18
2022-11-13T00:07:58.213Z,7.80
2022-11-13T00:10:24.882Z,8.45
2022-11-13T00:12:51.569Z,8.05
2022-11-13T00:15:18.189Z,8.57
2022-11-13T00:17:45.732Z,8.45
2022-11-13T00:20:12.374Z,8.20
2022-11-13T00:22:39.148Z,8.90
2022-11-13T00:25:06.123Z,8.98
2022-11-13T00:27:32.734Z,8.95
2022-11-13T00:29:59.481Z,8.07
2022-11-13T00:32:26.673Z,7.57
2022-11-13T00:34:53.361Z,9.15
2022-11-13T00:37:20.247Z,8.57
2022-11-13T00:39:46.973Z,8.63
2022-11-13T00:42:13.813Z,10.13
2022-11-13T00:44:40.674Z,8.25
2022-11-13T00:47:07.365Z,9.27
2022-11-13T00:49:34.113Z,9.38
2022-11-13T00:52:02.934Z,8.35
2022-11-13T00:54:29.802Z,8.45
2022-11-13T00:56:56.424Z,8.70
2022-11-13T00:59:23.205Z,9.07
2022-11-13T01:01:49.937Z,9.18
2022-11-13T01:04:16.778Z,9.43
2022-11-13T01:06:44.759Z,8.57
2022-11-13T01:09:11.648Z,8.77
2022-11-13T01:11:38.409Z,8.73
2022-11-13T01:14:05.164Z,9.25
2022-11-13T01:16:32.102Z,9.43
2022-11-13T01:18:58.982Z,9.25
2022-11-13T01:21:27.565Z,9.48
2022-11-13T01:23:55.058Z,9.07
2022-11-13T01:26:28.341Z,9.43
2022-11-13T01:28:58.321Z,8.55
2022-11-13T01:31:28.662Z,8.65
2022-11-13T01:33:56.007Z,9.38
2022-11-13T01:36:28.378Z,9.25
2022-11-13T01:38:55.906Z,9.23
2022-11-13T01:41:25.631Z,9.73
2022-11-13T01:43:53.952Z,10.05
2022-11-13T01:46:50.586Z,10.05
2022-11-13T01:49:24.552Z,9.73
2022-11-13T01:51:58.683Z,9.45
2022-11-13T01:54:39.020Z,9.05
2022-11-13T01:57:06.698Z,8.77
2022-11-13T01:59:40.897Z,8.73
2022-11-13T02:02:08.250Z,8.85
2022-11-13T02:04:36.042Z,9.25
2022-11-13T02:07:09.508Z,11.00
2022-11-13T02:09:40.324Z,10.35
2022-11-13T02:12:10.519Z,9.50
2022-11-13T02:14:41.322Z,9.02
2022-11-13T02:17:11.303Z,10.77
2022-11-13T02:19:42.149Z,9.25
2022-11-13T02:22:30.083Z,8.77
2022-11-13T02:25:00.323Z,8.70
2022-11-13T02:27:35.960Z,9.18
2022-11-13T02:30:22.028Z,9.13
2022-11-13T02:32:53.646Z,9.07
2022-11-13T02:35:24.971Z,9.23
2022-11-13T02:37:51.617Z,9.35
2022-11-13T02:40:19.090Z,7.88
2022-11-13T02:42:45.789Z,9.63
2022-11-13T02:45:12.474Z,9.20
2022-11-13T02:47:39.244Z,9.05
2022-11-13T02:50:06.587Z,9.65
2022-11-13T02:52:33.298Z,10.60
2022-11-13T02:54:59.968Z,9.65
2022-11-13T02:57:26.713Z,9.80
2022-11-13T02:59:53.737Z,9.50
2022-11-13T03:02:20.532Z,9.27
2022-11-13T03:05:16.330Z,9.70
2022-11-13T03:07:33.966Z,8.75
2022-11-13T03:10:00.647Z,8.88
2022-11-13T03:12:27.392Z,9.57
2022-11-13T03:14:54.075Z,10.00
2022-11-13T03:17:20.809Z,9.95
2022-11-13T03:19:47.552Z,8.70
2022-11-13T03:22:14.280Z,8.70
2022-11-13T03:24:40.964Z,8.90
2022-11-13T03:27:07.594Z,8.43
2022-11-13T03:29:34.275Z,8.73
2022-11-13T03:32:03.112Z,8.40
2022-11-13T03:34:29.898Z,8.80
2022-11-13T03:36:56.561Z,9.07
2022-11-13T03:39:23.256Z,9.07
2022-11-13T03:41:50.103Z,10.27
2022-11-13T03:44:17.065Z,10.27
2022-11-13T03:46:43.754Z,9.98
2022-11-13T03:49:10.423Z,9.65
2022-11-13T03:51:37.144Z,9.85
2022-11-13T03:54:04.007Z,9.13
2022-11-13T03:56:30.708Z,9.65
2022-11-13T03:58:57.500Z,9.57
2022-11-13T04:01:24.327Z,9.73
2022-11-13T04:03:50.985Z,9.30
2022-11-13T04:06:21.898Z,9.15
2022-11-13T04:08:48.666Z,10.00
2022-11-13T04:11:15.328Z,9.13
2022-11-13T04:13:42.030Z,10.25
2022-11-13T04:16:08.959Z,9.85
2022-11-13T04:18:35.590Z,9.98
2022-11-13T04:21:04.132Z,10.20
2022-11-13T04:23:31.307Z,10.73
2022-11-13T04:25:58.345Z,9.63
2022-11-13T04:28:25.151Z,9.73
2022-11-13T04:30:55.518Z,9.60
2022-11-13T04:33:22.510Z,9.27
2022-11-13T04:35:49.486Z,10.27
2022-11-13T04:38:16.408Z,9.90
2022-11-13T04:40:43.324Z,10.00
2022-11-13T04:43:10.132Z,10.00
2022-11-13T04:45:37.648Z,9.98
2022-11-13T04:48:04.776Z,11.25
2022-11-13T04:50:31.916Z,11.30
2022-11-13T04:52:58.749Z,13.63
2022-11-13T04:55:25.456Z,13.27
2022-11-13T04:57:55.348Z,13.55
2022-11-13T05:00:22.432Z,12.80
2022-11-13T05:02:49.195Z,12.73
2022-11-13T05:05:16.062Z,13.30
2022-11-13T05:07:42.786Z,14.35
2022-11-13T05:10:09.646Z,13.25
2022-11-13T05:12:36.341Z,13.70
2022-11-13T05:15:03.982Z,13.40
2022-11-13T05:17:30.612Z,13.35
2022-11-13T05:19:57.257Z,12.82
2022-11-13T05:22:24.020Z,12.95
2022-11-13T05:24:50.613Z,13.20
2022-11-13T05:27:17.933Z,13.75
2022-11-13T05:29:45.007Z,12.93
2022-11-13T05:32:11.777Z,12.38
2022-11-13T05:34:38.475Z,13.40
2022-11-13T05:37:05.253Z,12.23
2022-11-13T05:39:32.021Z,12.48
2022-11-13T05:41:59.403Z,12.88
2022-11-13T05:44:26.040Z,11.75
2022-11-13T05:46:52.709Z,11.98
2022-11-13T05:49:19.462Z,11.43
2022-11-13T05:51:46.209Z,11.93
2022-11-13T05:54:12.973Z,11.55
2022-11-13T05:56:40.485Z,11.48
2022-11-13T05:59:07.538Z,12.07
2022-11-13T06:01:37.471Z,11.00
2022-11-13T06:04:06.542Z,11.02
2022-11-13T06:06:33.902Z,11.98
2022-11-13T06:09:02.650Z,10.98
2022-11-13T06:11:30.454Z,11.60
2022-11-13T06:13:59.018Z,11.65
2022-11-13T06:16:30.487Z,12.30
2022-11-13T06:18:59.744Z,11.07
2022-11-13T06:21:30.313Z,12.35
2022-11-13T06:23:58.666Z,12.15
2022-11-13T06:26:33.988Z,11.20
2022-11-13T06:29:02.016Z,12.35
2022-11-13T06:31:32.343Z,11.57
2022-11-13T06:33:59.826Z,11.18
2022-11-13T06:36:28.988Z,10.50
2022-11-13T06:38:56.115Z,11.80
2022-11-13T06:41:26.985Z,11.50
2022-11-13T06:43:54.433Z,11.70
2022-11-13T06:46:25.602Z,11.07
2022-11-13T06:48:53.041Z,11.98
2022-11-13T06:51:25.704Z,11.50
2022-11-13T06:53:52.686Z,11.07
2022-11-13T06:56:19.813Z,11.48
2022-11-13T06:58:46.753Z,10.82
2022-11-13T07:01:19.415Z,11.18
2022-11-13T07:03:46.322Z,11.48
2022-11-13T07:06:18.578Z,11.98
2022-11-13T07:08:46.656Z,10.25
2022-11-13T07:11:16.592Z,11.02
2022-11-13T07:13:43.970Z,10.75
2022-11-13T07:16:19.115Z,10.05
2022-11-13T07:18:53.398Z,11.18
2022-11-13T07:21:21.310Z,10.95
2022-11-13T07:23:49.565Z,11.07
2022-11-13T07:26:16.697Z,11.30
2022-11-13T07:28:43.565Z,11.20
2022-11-13T07:31:12.753Z,10.82
2022-11-13T07:33:39.430Z,10.90
2022-11-13T07:36:06.719Z,12.35
2022-11-13T07:38:33.372Z,11.45
2022-11-13T07:41:00.520Z,11.18
2022-11-13T07:43:27.641Z,12.02
2022-11-13T07:45:55.413Z,10.38
2022-11-13T07:48:22.667Z,10.10
2022-11-13T07:50:49.744Z,9.38
2022-11-13T07:53:17.713Z,10.38
2022-11-13T07:55:44.520Z,9.27
2022-11-13T07:58:11.423Z,9.65
2022-11-13T08:00:38.865Z,9.13
2022-11-13T08:03:12.430Z,7.57
2022-11-13T08:05:39.781Z,10.13
2022-11-13T08:08:07.222Z,9.02
2022-11-13T08:10:34.049Z,8.50
2022-11-13T08:13:02.932Z,8.85
2022-11-13T08:15:30.742Z,9.00
2022-11-13T08:17:59.094Z,9.48
2022-11-13T08:20:27.607Z,8.15
2022-11-13T08:22:57.990Z,9.00
2022-11-13T08:25:25.088Z,7.50
2022-11-13T08:27:55.500Z,8.10
2022-11-13T08:30:23.802Z,7.80
2022-11-13T08:32:51.203Z,8.35
2022-11-13T08:35:19.708Z,9.50
2022-11-13T08:37:47.265Z,9.18
2022-11-13T08:40:14.344Z,8.90
2022-11-13T08:42:41.076Z,9.02
2022-11-13T08:45:08.718Z,9.35
2022-11-13T08:47:35.913Z,9.40
2022-11-13T08:50:03.253Z,10.05
2022-11-13T08:52:29.924Z,9.75
2022-11-13T08:54:56.899Z,9.32
2022-11-13T08:57:23.704Z,9.65
2022-11-13T08:59:50.552Z,10.10
2022-11-13T09:02:18.041Z,10.43
2022-11-13T09:04:44.776Z,9.93
2022-11-13T09:07:11.856Z,10.80
2022-11-13T09:09:39.527Z,11.23
2022-11-13T09:12:06.346Z,10.25
2022-11-13T09:14:33.095Z,10.88
2022-11-13T09:17:00.208Z,10.70
2022-11-13T09:19:27.210Z,11.18
2022-11-13T09:21:55.184Z,10.98
2022-11-13T09:24:21.989Z,11.05
2022-11-13T09:26:50.286Z,10.93
2022-11-13T09:29:18.354Z,11.05
2022-11-13T09:31:45.392Z,10.70
2022-11-13T09:34:12.061Z,10.00
2022-11-13T09:36:38.730Z,10.43
2022-11-13T09:39:05.635Z,10.95
2022-11-13T09:41:38.290Z,11.55
2022-11-13T09:44:12.145Z,10.85
2022-11-13T09:46:54.112Z,11.27
2022-11-13T09:49:36.122Z,11.00
2022-11-13T09:52:16.645Z,12.23
2022-11-13T09:54:43.454Z,11.35
2022-11-13T09:57:25.990Z,10.07
2022-11-13T10:00:04.176Z,11.25
2022-11-13T10:03:08.606Z,10.13
2022-11-13T10:05:51.447Z,10.90
2022-11-13T10:08:27.455Z,10.75
2022-11-13T10:11:04.727Z,10.77
2022-11-13T10:13:45.821Z,10.90
2022-11-13T10:16:30.648Z,11.00
2022-11-13T10:19:15.024Z,10.93
2022-11-13T10:21:52.069Z,11.40
2022-11-13T10:24:29.865Z,11.38
2022-11-13T10:26:59.765Z,11.10
2022-11-13T10:29:29.569Z,10.98
2022-11-13T10:31:57.192Z,11.23
2022-11-13T10:34:23.935Z,11.30
2022-11-13T10:37:09.072Z,11.32
2022-11-13T10:39:45.667Z,11.73
2022-11-13T10:42:24.260Z,11.32
2022-11-13T10:44:59.697Z,11.40
2022-11-13T10:48:02.117Z,11.52
2022-11-13T10:50:27.339Z,11.30
2022-11-13T10:52:56.043Z,11.63
2022-11-13T10:55:35.962Z,10.10
2022-11-13T10:58:12.391Z,11.05
2022-11-13T11:00:41.385Z,12.02
2022-11-13T11:03:19.551Z,11.70
2022-11-13T11:06:01.361Z,11.90
2022-11-13T11:08:34.868Z,11.40
2022-11-13T11:11:34.995Z,12.60
2022-11-13T11:14:32.043Z,11.32
2022-11-13T11:17:01.249Z,11.85
2022-11-13T11:19:32.139Z,12.00
2022-11-13T11:22:09.525Z,11.40
2022-11-13T11:24:42.200Z,11.75
2022-11-13T11:27:18.046Z,11.73
2022-11-13T11:29:54.334Z,12.27
2022-11-13T11:32:25.730Z,13.38
2022-11-13T11:35:05.165Z,14.02
2022-11-13T11:37:39.374Z,13.52
2022-11-13T11:40:21.946Z,14.32
2022-11-13T11:43:33.632Z,13.45
2022-11-13T11:46:00.386Z,14.88
2022-11-13T11:48:31.729Z,15.57
2022-11-13T11:51:13.311Z,16.13
2022-11-13T11:54:01.445Z,17.08
2022-11-13T11:56:42.043Z,16.70
2022-11-13T11:59:51.386Z,17.50
2022-11-13T12:05:27.426Z,17.80
2022-11-13T12:08:08.179Z,17.30
2022-11-13T12:10:37.875Z,17.90
2022-11-13T12:13:07.630Z,18.85
2022-11-13T12:15:49.696Z,18.90
2022-11-13T12:18:48.242Z,19.15
2022-11-13T12:21:56.679Z,19.02
2022-11-13T12:24:50.386Z,17.52
2022-11-13T12:27:38.537Z,19.63
2022-11-13T12:30:17.893Z,19.13
2022-11-13T12:32:44.835Z,19.85
2022-11-13T12:35:20.255Z,19.20
2022-11-13T12:38:15.336Z,20.95
2022-11-13T12:40:54.056Z,19.83
2022-11-13T12:43:26.698Z,18.98
2022-11-13T12:45:59.639Z,19.98
2022-11-13T12:48:33.037Z,18.45
2022-11-13T12:51:03.199Z,20.17
2022-11-13T12:53:43.079Z,18.52
2022-11-13T12:56:24.080Z,18.05
2022-11-13T12:59:34.320Z,18.45
2022-11-13T13:02:27.204Z,16.38
2022-11-13T13:05:31.143Z,17.15
2022-11-13T13:08:11.519Z,15.52
2022-11-13T13:11:04.934Z,15.77
2022-11-13T13:13:39.976Z,12.05
2022-11-13T13:16:08.786Z,11.20
2022-11-13T13:18:38.040Z,11.52
2022-11-13T13:21:15.528Z,10.93
2022-11-13T13:23:56.835Z,9.52
2022-11-13T13:26:28.824Z,8.27
2022-11-13T13:29:18.273Z,8.18
2022-11-13T13:32:20.698Z,8.15
2022-11-13T13:35:03.129Z,7.50
2022-11-13T13:38:09.279Z,7.55
2022-11-13T13:41:01.748Z,6.97
2022-11-13T13:43:28.431Z,6.40
2022-11-13T13:46:12.330Z,5.32
2022-11-13T13:48:41.034Z,4.40
2022-11-13T13:51:26.162Z,5.30
2022-11-13T13:53:54.949Z,4.28
2022-11-13T13:56:23.216Z,4.70
2022-11-13T13:58:51.178Z,4.18
2022-11-13T14:01:33.189Z,4.15
2022-11-13T14:04:14.134Z,4.38
2022-11-13T14:06:55.826Z,3.70
2022-11-13T14:09:30.849Z,3.78
2022-11-13T14:12:00.833Z,3.85
2022-11-13T14:14:29.857Z,4.07
2022-11-13T14:16:58.723Z,3.42
2022-11-13T14:19:25.383Z,4.60
2022-11-13T14:22:04.443Z,4.15
2022-11-13T14:24:48.763Z,3.92
2022-11-13T14:27:20.717Z,4.65
2022-11-13T14:29:54.050Z,3.90
2022-11-13T14:32:29.533Z,3.60
2022-11-13T14:35:02.140Z,4.15
2022-11-13T14:37:35.918Z,4.32
2022-11-13T14:40:11.203Z,3.72
2022-11-13T14:42:43.822Z,3.80
2022-11-13T14:45:19.767Z,3.85
2022-11-13T14:48:15.865Z,3.97
2022-11-13T14:50:51.691Z,3.70
2022-11-13T14:53:34.142Z,3.40
2022-11-13T14:56:12.108Z,3.55
2022-11-13T14:58:47.324Z,4.40
2022-11-13T15:01:18.322Z,3.58
2022-11-13T15:03:46.250Z,3.58
2022-11-13T15:06:18.804Z,4.65
2022-11-13T15:08:46.782Z,4.18
2022-11-13T15:11:15.590Z,3.25
2022-11-13T15:13:42.978Z,4.47
2022-11-13T15:16:26.339Z,3.42
2022-11-13T15:18:54.641Z,4.25
2022-11-13T15:21:21.480Z,4.22
2022-11-13T15:23:48.105Z,3.75
2022-11-13T15:26:14.782Z,4.88
2022-11-13T15:28:44.491Z,3.47
2022-11-13T15:31:41.652Z,3.60
2022-11-13T15:34:12.787Z,3.58
2022-11-13T15:36:39.794Z,3.17
2022-11-13T15:39:13.153Z,3.90
2022-11-13T15:41:45.297Z,3.95
2022-11-13T15:44:14.297Z,3.90
2022-11-13T15:46:41.552Z,3.72
2022-11-13T15:49:08.236Z,4.28
2022-11-13T15:51:39.797Z,4.18
2022-11-13T15:54:24.634Z,4.03
2022-11-13T15:56:51.372Z,4.50
2022-11-13T15:59:18.196Z,4.35
2022-11-13T16:01:45.263Z,3.95
2022-11-13T16:04:13.276Z,4.50
2022-11-13T16:06:40.625Z,5.10
2022-11-13T16:09:12.996Z,4.78
2022-11-13T16:11:39.880Z,4.93
2022-11-13T16:14:07.122Z,4.72
2022-11-13T16:16:38.461Z,4.70
2022-11-13T16:19:23.746Z,4.28
2022-11-13T16:21:50.431Z,4.72
2022-11-13T16:24:22.542Z,4.82
2022-11-13T16:26:54.837Z,4.50
2022-11-13T16:29:23.308Z,5.25
2022-11-13T16:31:50.231Z,5.75
2022-11-13T16:34:16.879Z,5.63
2022-11-13T16:36:43.707Z,6.72
2022-11-13T16:39:15.889Z,6.38
2022-11-13T16:41:42.721Z,6.90
2022-11-13T16:44:09.473Z,7.07
2022-11-13T16:46:41.569Z,6.50
2022-11-13T16:49:20.278Z,7.43
2022-11-13T16:51:46.996Z,6.13
2022-11-13T16:54:14.371Z,6.25
2022-11-13T16:56:41.095Z,5.18
2022-11-13T16:59:10.368Z,5.50
2022-11-13T17:01:37.244Z,4.82
2022-11-13T17:04:04.561Z,5.68
2022-11-13T17:06:34.200Z,4.80
2022-11-13T17:09:02.955Z,4.90
2022-11-13T17:11:31.929Z,5.72
2022-11-13T17:14:00.589Z,4.93
2022-11-13T17:16:30.270Z,5.85
2022-11-13T17:18:57.852Z,5.20
2022-11-13T17:21:27.301Z,4.93
2022-11-13T17:23:58.976Z,5.68
2022-11-13T17:28:53.277Z,5.15
2022-11-13T17:31:21.110Z,6.55
2022-11-13T17:33:48.211Z,5.97
2022-11-13T17:36:15.099Z,8.20
2022-11-13T17:38:41.875Z,6.88
2022-11-13T17:41:10.948Z,6.82
2022-11-13T17:43:39.567Z,6.85
2022-11-13T17:46:09.311Z,7.60
2022-11-13T17:48:36.869Z,6.00
2022-11-13T17:51:06.793Z,5.93
2022-11-13T17:53:34.151Z,5.00
2022-11-13T17:56:03.668Z,4.53
2022-11-13T17:58:30.844Z,4.70
2022-11-13T18:01:09.122Z,4.38
2022-11-13T18:06:13.464Z,4.50
2022-11-13T18:08:41.709Z,4.93
2022-11-13T18:11:15.400Z,4.40
2022-11-13T18:13:42.992Z,4.60
2022-11-13T18:16:13.860Z,4.93
2022-11-13T18:18:41.776Z,4.28
2022-11-13T18:21:23.466Z,4.35
2022-11-13T18:23:56.671Z,4.35
2022-11-13T18:26:23.773Z,4.35
2022-11-13T18:28:50.431Z,4.75
2022-11-13T18:31:18.857Z,4.60
2022-11-13T18:33:45.971Z,4.57
2022-11-13T18:36:12.991Z,4.78
2022-11-13T18:38:39.844Z,4.88
2022-11-13T18:41:09.679Z,5.05
2022-11-13T18:43:36.635Z,4.95
2022-11-13T18:46:08.978Z,5.30
2022-11-13T18:48:38.698Z,5.07
2022-11-13T18:51:14.934Z,5.47
2022-11-13T18:53:43.754Z,4.80
2022-11-13T18:56:13.774Z,4.93
2022-11-13T18:58:42.034Z,5.80
2022-11-13T19:01:23.097Z,5.78
2022-11-13T19:04:23.900Z,5.30
2022-11-13T19:06:40.830Z,4.50
2022-11-13T19:09:11.597Z,5.47
2022-11-13T19:11:38.961Z,4.20
2022-11-13T19:14:06.215Z,6.13
2022-11-13T19:16:35.693Z,4.82
2022-11-13T19:19:05.923Z,4.53
2022-11-13T19:21:35.170Z,5.30
2022-11-13T19:24:02.981Z,5.55
2022-11-13T19:26:30.168Z,4.75
2022-11-13T19:28:57.501Z,5.55
2022-11-13T19:31:26.596Z,5.20
2022-11-13T19:33:58.835Z,4.53
2022-11-13T19:36:28.124Z,4.88
2022-11-13T19:38:55.769Z,5.63
2022-11-13T19:41:23.662Z,4.43
2022-11-13T19:43:50.774Z,5.15
2022-11-13T19:46:19.322Z,5.25
2022-11-13T19:48:48.023Z,5.10
2022-11-13T19:51:18.485Z,6.25
2022-11-13T19:53:50.261Z,4.80
2022-11-13T19:58:49.563Z,4.72
2022-11-13T20:01:22.271Z,4.88
2022-11-13T20:03:54.540Z,5.25
2022-11-13T20:06:21.599Z,5.68
2022-11-13T20:08:48.436Z,5.65
2022-11-13T20:11:15.392Z,5.35
2022-11-13T20:13:43.072Z,5.20
2022-11-13T20:16:12.003Z,5.03
2022-11-13T20:18:38.935Z,5.82
2022-11-13T20:21:05.944Z,5.38
2022-11-13T20:23:33.374Z,5.55
2022-11-13T20:26:02.355Z,6.68
2022-11-13T20:28:30.599Z,5.93
2022-11-13T20:31:04.807Z,6.28
2022-11-13T20:33:33.326Z,6.22
2022-11-13T20:36:01.846Z,6.43
2022-11-13T20:38:29.200Z,6.70
2022-11-13T20:40:56.372Z,6.53
2022-11-13T20:43:23.675Z,5.75
2022-11-13T20:45:50.391Z,6.65
2022-11-13T20:48:17.187Z,7.38
2022-11-13T20:50:44.664Z,6.85
2022-11-13T20:53:12.465Z,7.18
2022-11-13T20:55:39.216Z,6.70
2022-11-13T20:58:05.966Z,7.15
2022-11-13T21:00:32.663Z,7.78
2022-11-13T21:02:59.440Z,6.97
2022-11-13T21:05:27.786Z,6.70
2022-11-13T21:07:54.661Z,8.00
2022-11-13T21:10:21.898Z,7.22
2022-11-13T21:12:48.559Z,7.45
2022-11-13T21:15:15.303Z,7.50
2022-11-13T21:17:41.941Z,7.55
2022-11-13T21:20:09.256Z,7.50
2022-11-13T21:22:35.865Z,8.45
2022-11-13T21:25:02.727Z,7.30
2022-11-13T21:27:29.314Z,7.82
2022-11-13T21:29:55.979Z,8.15
2022-11-13T21:32:22.595Z,8.00
2022-11-13T21:34:49.431Z,8.43
2022-11-13T21:37:16.297Z,6.93
2022-11-13T21:39:43.001Z,7.10
2022-11-13T21:42:09.767Z,7.07
2022-11-13T21:44:36.459Z,7.53
2022-11-13T21:47:03.370Z,7.90
2022-11-13T21:49:30.007Z,7.28
2022-11-13T21:51:56.890Z,7.32
2022-11-13T21:54:23.662Z,7.07
2022-11-13T21:56:50.913Z,7.30
2022-11-13T21:59:17.555Z,7.25
2022-11-13T22:01:44.261Z,7.07
2022-11-13T22:04:11.021Z,7.57
2022-11-13T22:06:39.569Z,6.20
2022-11-13T22:09:08.018Z,7.82
2022-11-13T22:11:36.256Z,8.32
2022-11-13T22:14:03.626Z,7.40
2022-11-13T22:16:33.247Z,7.38
2022-11-13T22:19:03.457Z,8.20
2022-11-13T22:21:31.320Z,7.15
2022-11-13T22:23:59.550Z,9.48
2022-11-13T22:26:27.892Z,7.82
2022-11-13T22:28:56.434Z,8.15
2022-11-13T22:31:26.675Z,7.45
2022-11-13T22:33:55.407Z,8.50
2022-11-13T22:36:23.647Z,8.38
2022-11-13T22:38:51.002Z,9.30
2022-11-13T22:41:24.211Z,8.70
2022-11-13T22:43:57.564Z,9.02
2022-11-13T22:46:26.541Z,8.35
2022-11-13T22:48:54.892Z,7.93
2022-11-13T22:51:24.240Z,8.75
2022-11-13T22:54:02.640Z,9.00
2022-11-13T22:56:30.959Z,9.52
2022-11-13T22:58:59.638Z,11.20
2022-11-13T23:01:28.942Z,10.70
2022-11-13T23:03:57.642Z,10.52
2022-11-13T23:06:27.218Z,10.75
2022-11-13T23:08:54.625Z,10.45
2022-11-13T23:11:23.974Z,11.10
2022-11-13T23:14:02.750Z,10.75
2022-11-13T23:16:31.051Z,11.48
2022-11-13T23:18:59.055Z,10.77
2022-11-13T23:21:27.683Z,10.23
2022-11-13T23:23:55.537Z,10.77
2022-11-13T23:26:22.960Z,11.45
2022-11-13T23:28:49.977Z,10.68
2022-11-13T23:31:16.877Z,10.38
2022-11-13T23:33:43.553Z,10.20
2022-11-13T23:36:12.178Z,11.20
2022-11-13T23:38:39.149Z,10.70
2022-11-13T23:41:06.653Z,10.57
2022-11-13T23:44:02.206Z,10.73
2022-11-13T23:46:20.177Z,10.15
2022-11-13T23:48:46.835Z,10.75
2022-11-13T23:51:13.544Z,10.60
2022-11-13T23:53:40.235Z,10.18
2022-11-13T23:56:07.671Z,10.63
2022-11-13T23:58:34.869Z,10.90
